Time;durP1;ratioP1;P1;durP2;ratioP2;P2;SDS_P1;SDS_P2;PMS_P1;PMS_P2;Temp;Humidity;BMP_temperature;BMP_pressure;BME280_temperature;BME280_humidity;BME280_pressure;Samples;Min_cycle;Max_cycle;Signal;HPM_P1;HPM_P2
2022/03/12 00:00:01;;;;;;;28.08;16.73;;;10.80;13.40;;;;;;5008748;28;25060;-71
2022/03/12 00:02:32;;;;;;;24.40;16.15;;;10.70;13.80;;;;;;5008383;28;25037;-72
2022/03/12 00:04:58;;;;;;;29.35;15.80;;;10.70;13.70;;;;;;4992003;28;25079;-71
2022/03/12 00:07:25;;;;;;;27.83;16.45;;;10.70;13.80;;;;;;5009303;28;25069;-71
2022/03/12 00:09:50;;;;;;;27.35;15.75;;;10.70;14.10;;;;;;4981840;28;25076;-70
2022/03/12 00:12:19;;;;;;;26.50;16.35;;;10.70;14.30;;;;;;5001369;28;25058;-71
2022/03/12 00:14:47;;;;;;;28.33;16.23;;;10.70;14.50;;;;;;4999690;28;25054;-69
2022/03/12 00:17:13;;;;;;;25.20;15.65;;;10.70;15.00;;;;;;4994374;28;25065;-72
2022/03/12 00:19:41;;;;;;;25.38;15.65;;;10.70;15.70;;;;;;4995789;28;25077;-71
2022/03/12 00:22:07;;;;;;;32.63;17.30;;;10.70;17.20;;;;;;4998915;28;25069;-71
2022/03/12 00:24:34;;;;;;;27.70;16.83;;;10.60;18.00;;;;;;4995974;28;25150;-71
2022/03/12 00:27:00;;;;;;;27.40;16.45;;;10.60;18.10;;;;;;4995678;28;25063;-71
2022/03/12 00:29:26;;;;;;;26.08;15.57;;;10.60;18.90;;;;;;4990399;28;25079;-72
2022/03/12 00:31:53;;;;;;;25.35;15.50;;;10.50;19.30;;;;;;4995355;28;25053;-72
2022/03/12 00:34:19;;;;;;;27.40;15.88;;;10.50;19.40;;;;;;4997636;28;25073;-71
2022/03/12 00:36:45;;;;;;;24.80;15.82;;;10.60;19.20;;;;;;5004471;28;25073;-70
2022/03/12 00:39:13;;;;;;;23.60;14.93;;;10.60;19.30;;;;;;5002818;28;25064;-71
2022/03/12 00:41:42;;;;;;;24.90;15.80;;;10.60;19.80;;;;;;5005375;28;25143;-70
2022/03/12 00:44:10;;;;;;;25.08;14.35;;;10.60;20.00;;;;;;5007030;28;25060;-71
2022/03/12 00:46:36;;;;;;;28.05;15.27;;;10.60;20.40;;;;;;5006800;28;25066;-72
2022/03/12 00:49:02;;;;;;;22.90;15.30;;;10.60;20.40;;;;;;5007956;28;25100;-70
2022/03/12 00:51:27;;;;;;;27.75;16.52;;;10.60;20.20;;;;;;4995446;28;25100;-72
2022/03/12 00:53:53;;;;;;;23.77;14.50;;;10.60;20.80;;;;;;4983560;28;25071;-70
2022/03/12 00:56:19;;;;;;;23.40;14.77;;;10.60;21.80;;;;;;4998553;28;25055;-71
2022/03/12 00:58:46;;;;;;;24.98;15.02;;;10.60;21.90;;;;;;5008701;28;25092;-70
2022/03/12 01:01:13;;;;;;;25.63;15.35;;;10.60;21.50;;;;;;5007307;28;25053;-70
2022/03/12 01:03:39;;;;;;;25.67;15.90;;;10.60;21.60;;;;;;5007010;28;25126;-69
2022/03/12 01:06:06;;;;;;;27.42;16.17;;;10.60;22.10;;;;;;5001986;28;25086;-71
2022/03/12 01:08:34;;;;;;;24.65;14.13;;;10.60;22.40;;;;;;4998314;28;25062;-72
2022/03/12 01:11:03;;;;;;;24.50;14.95;;;10.50;22.80;;;;;;5018645;28;25102;-71
2022/03/12 01:13:29;;;;;;;25.17;15.23;;;10.50;23.20;;;;;;5014404;28;25056;-72
2022/03/12 01:15:55;;;;;;;27.02;15.73;;;10.50;23.20;;;;;;5014128;28;25126;-72
2022/03/12 01:18:23;;;;;;;23.30;15.05;;;10.60;22.60;;;;;;5017970;28;25144;-72
2022/03/12 01:20:49;;;;;;;25.42;15.30;;;10.60;22.80;;;;;;5017593;28;25059;-72
2022/03/12 01:23:17;;;;;;;24.25;15.48;;;10.60;22.70;;;;;;5002368;28;25093;-73
2022/03/12 01:25:46;;;;;;;24.30;15.48;;;10.50;22.80;;;;;;5005572;28;25069;-73
2022/03/12 01:28:13;;;;;;;22.20;14.90;;;10.50;23.30;;;;;;5012188;28;25101;-71
2022/03/12 01:30:41;;;;;;;23.33;14.25;;;10.50;23.80;;;;;;5017074;28;25066;-71
2022/03/12 01:33:07;;;;;;;24.65;15.15;;;10.50;24.20;;;;;;5012123;28;25067;-70
2022/03/12 01:35:33;;;;;;;27.67;15.32;;;10.50;25.00;;;;;;5011021;28;25117;-71
2022/03/12 01:38:00;;;;;;;22.75;14.77;;;10.40;25.70;;;;;;5011750;28;25069;-71
2022/03/12 01:40:25;;;;;;;30.80;15.38;;;10.40;26.40;;;;;;5010594;28;25162;-70
2022/03/12 01:42:52;;;;;;;21.73;14.80;;;10.40;27.00;;;;;;5011554;28;25095;-70
2022/03/12 01:45:24;;;;;;;22.40;14.98;;;10.50;27.50;;;;;;5011050;28;25142;-70
2022/03/12 01:47:49;;;;;;;27.45;14.10;;;10.40;28.10;;;;;;5012044;28;25141;-70
2022/03/12 01:50:19;;;;;;;23.92;14.73;;;10.40;28.50;;;;;;5011183;28;25099;-70
2022/03/12 01:52:45;;;;;;;23.13;14.73;;;10.40;28.80;;;;;;5010981;28;25074;-71
2022/03/12 01:55:11;;;;;;;26.05;13.90;;;10.40;29.10;;;;;;5000201;28;25070;-71
2022/03/12 01:57:37;;;;;;;23.17;14.48;;;10.30;29.30;;;;;;5010226;28;25066;-71
2022/03/12 02:00:05;;;;;;;24.30;14.18;;;10.30;29.60;;;;;;5011268;28;25064;-72
2022/03/12 02:02:30;;;;;;;20.08;14.00;;;10.20;29.80;;;;;;5002094;28;25084;-71
2022/03/12 02:04:57;;;;;;;22.77;14.50;;;10.20;30.70;;;;;;4988532;28;25056;-71
2022/03/12 02:07:23;;;;;;;22.08;14.57;;;10.20;30.50;;;;;;4999611;28;25098;-71
2022/03/12 02:09:50;;;;;;;24.75;14.60;;;10.20;30.40;;;;;;5004683;28;25079;-69
2022/03/12 02:12:16;;;;;;;20.02;13.30;;;10.20;30.50;;;;;;5010502;28;25093;-72
2022/03/12 02:14:41;;;;;;;25.58;13.45;;;10.20;30.70;;;;;;4992839;28;25141;-71
2022/03/12 02:17:10;;;;;;;20.67;13.30;;;10.20;31.20;;;;;;5010493;28;25076;-70
2022/03/12 02:19:35;;;;;;;21.42;13.35;;;10.20;32.10;;;;;;5009647;28;25069;-70
2022/03/12 02:22:15;;;;;;;21.60;14.23;;;10.20;33.30;;;;;;5013977;28;25070;-70
2022/03/12 02:24:42;;;;;;;19.15;13.05;;;10.30;34.90;;;;;;5013569;28;24887;-71
2022/03/12 02:27:10;;;;;;;18.90;12.85;;;10.30;36.60;;;;;;5012606;28;25097;-71
2022/03/12 02:29:37;;;;;;;21.88;12.02;;;10.30;39.90;;;;;;5010047;28;25086;-72
2022/03/12 02:32:09;;;;;;;19.45;12.60;;;10.20;42.80;;;;;;5010558;28;25059;-71
2022/03/12 02:34:48;;;;;;;17.42;11.65;;;10.30;46.10;;;;;;5009573;28;25083;-73
2022/03/12 02:37:26;;;;;;;14.52;10.40;;;10.40;48.30;;;;;;5010107;28;25048;-71
2022/03/12 02:39:51;;;;;;;13.13;9.43;;;10.40;51.40;;;;;;5010924;28;25130;-72
2022/03/12 02:42:20;;;;;;;11.70;8.48;;;10.40;55.60;;;;;;5010956;28;25087;-71
2022/03/12 02:44:47;;;;;;;11.80;8.45;;;10.50;58.90;;;;;;5010571;28;25050;-72
2022/03/12 02:47:16;;;;;;;11.07;6.95;;;10.50;62.00;;;;;;5010400;28;25065;-71
2022/03/12 02:49:49;;;;;;;8.23;6.68;;;10.60;64.30;;;;;;5011128;28;25079;-72
2022/03/12 02:52:17;;;;;;;9.10;6.32;;;10.60;66.00;;;;;;5011488;28;25056;-72
2022/03/12 02:54:44;;;;;;;9.38;6.28;;;10.60;67.30;;;;;;5010155;28;25155;-70
2022/03/12 02:57:10;;;;;;;8.48;6.15;;;10.70;68.80;;;;;;5011857;28;25073;-73
2022/03/12 02:59:37;;;;;;;7.65;5.45;;;10.70;69.70;;;;;;5012515;28;25133;-71
2022/03/12 03:02:06;;;;;;;7.80;5.50;;;10.70;70.80;;;;;;5013633;28;25077;-70
2022/03/12 03:04:34;;;;;;;6.93;5.05;;;10.70;71.50;;;;;;5009151;28;25070;-71
2022/03/12 03:07:00;;;;;;;7.32;5.95;;;10.70;72.40;;;;;;5012315;28;25097;-71
2022/03/12 03:09:26;;;;;;;7.07;4.72;;;10.70;73.00;;;;;;5016691;28;25147;-72
2022/03/12 03:11:52;;;;;;;6.90;5.50;;;10.70;73.20;;;;;;5022222;28;25059;-71
2022/03/12 03:14:18;;;;;;;7.03;5.00;;;10.70;73.50;;;;;;5018035;28;25107;-73
2022/03/12 03:16:49;;;;;;;8.70;5.00;;;10.70;74.30;;;;;;5023741;28;25099;-72
2022/03/12 03:19:15;;;;;;;5.93;5.07;;;10.70;74.40;;;;;;5008489;28;25068;-71
2022/03/12 03:21:40;;;;;;;8.02;5.38;;;10.70;74.10;;;;;;5026306;28;25072;-72
2022/03/12 03:24:06;;;;;;;7.10;5.03;;;10.70;74.60;;;;;;5024754;28;25069;-71
2022/03/12 03:26:38;;;;;;;5.25;4.53;;;10.70;74.80;;;;;;5005675;28;25068;-71
2022/03/12 03:29:07;;;;;;;4.78;4.25;;;10.70;74.90;;;;;;5022859;28;25085;-69
2022/03/12 03:31:34;;;;;;;5.65;4.32;;;10.70;75.30;;;;;;5009269;28;25055;-70
2022/03/12 03:33:59;;;;;;;6.78;5.00;;;10.70;76.00;;;;;;5008789;28;25130;-71
2022/03/12 03:36:25;;;;;;;5.80;4.65;;;10.70;75.40;;;;;;5008321;28;25105;-72
2022/03/12 03:38:50;;;;;;;6.43;4.20;;;10.70;75.60;;;;;;5009034;28;25070;-72
2022/03/12 03:41:17;;;;;;;7.38;5.03;;;10.70;75.70;;;;;;5009132;28;25155;-72
2022/03/12 03:43:47;;;;;;;4.70;3.97;;;10.60;76.30;;;;;;5007771;28;25117;-70
2022/03/12 03:46:17;;;;;;;5.53;4.72;;;10.60;76.40;;;;;;5001049;28;25140;-71
2022/03/12 03:48:42;;;;;;;6.60;4.65;;;10.50;76.80;;;;;;5006016;28;25078;-71
2022/03/12 03:51:08;;;;;;;6.32;4.60;;;10.50;77.20;;;;;;4998817;28;25081;-72
2022/03/12 03:53:34;;;;;;;4.95;4.25;;;10.40;77.20;;;;;;5005680;28;25089;-75
2022/03/12 03:56:01;;;;;;;5.38;4.22;;;10.30;78.20;;;;;;5021453;28;25061;-72
2022/03/12 03:58:27;;;;;;;6.28;4.72;;;10.30;78.60;;;;;;5021374;28;25153;-73
2022/03/12 04:00:59;;;;;;;5.18;4.32;;;10.20;79.00;;;;;;5020620;28;25099;-72
2022/03/12 04:03:29;;;;;;;7.55;4.95;;;10.20;79.70;;;;;;5019631;28;25071;-74
2022/03/12 04:05:54;;;;;;;8.40;5.13;;;10.20;79.90;;;;;;5014056;28;25065;-74
2022/03/12 04:08:21;;;;;;;7.25;4.93;;;10.20;80.40;;;;;;5009813;28;25089;-71
2022/03/12 04:10:46;;;;;;;7.55;4.68;;;10.20;80.50;;;;;;5009578;28;25054;-72
2022/03/12 04:13:18;;;;;;;5.97;4.43;;;10.20;80.70;;;;;;5009742;28;25054;-71
2022/03/12 04:15:43;;;;;;;5.75;4.47;;;10.10;81.00;;;;;;4992008;28;25059;-72
2022/03/12 04:18:09;;;;;;;6.20;4.38;;;10.20;81.10;;;;;;5009372;28;25063;-72
2022/03/12 04:20:36;;;;;;;5.13;4.10;;;10.30;80.50;;;;;;5008328;28;25054;-72
2022/03/12 04:23:02;;;;;;;5.18;3.90;;;10.20;80.40;;;;;;5008444;28;25119;-72
2022/03/12 04:25:31;;;;;;;5.13;4.35;;;10.20;80.40;;;;;;5008735;28;25106;-73
2022/03/12 04:27:58;;;;;;;6.40;4.50;;;10.20;80.60;;;;;;4992404;28;25071;-72
2022/03/12 04:30:24;;;;;;;5.38;4.03;;;10.10;80.70;;;;;;5008395;28;25070;-70
2022/03/12 04:32:50;;;;;;;5.72;4.10;;;10.10;81.10;;;;;;4980650;28;25065;-71
2022/03/12 04:35:19;;;;;;;5.63;4.72;;;10.10;81.10;;;;;;5003439;28;25072;-70
2022/03/12 04:37:45;;;;;;;8.15;4.35;;;10.00;81.40;;;;;;5006299;28;25080;-70
2022/03/12 04:40:18;;;;;;;6.85;4.90;;;10.00;81.70;;;;;;5010595;28;25079;-71
2022/03/12 04:42:43;;;;;;;5.10;4.57;;;10.00;82.10;;;;;;4992758;28;25053;-71
2022/03/12 04:45:11;;;;;;;4.75;4.25;;;10.00;82.30;;;;;;5009608;28;25105;-73
2022/03/12 04:47:41;;;;;;;5.90;4.70;;;10.00;82.80;;;;;;5008393;28;25143;-72
2022/03/12 04:50:07;;;;;;;5.65;4.43;;;9.90;83.00;;;;;;5011958;28;25079;-71
2022/03/12 04:52:34;;;;;;;5.00;4.50;;;9.90;82.70;;;;;;5010536;28;25148;-73
2022/03/12 04:55:07;;;;;;;6.28;4.38;;;9.90;82.40;;;;;;5009446;28;25105;-71
2022/03/12 04:57:34;;;;;;;6.18;4.00;;;9.80;83.50;;;;;;5008779;28;25080;-73
2022/03/12 05:00:06;;;;;;;5.60;4.68;;;9.70;84.50;;;;;;5007979;28;25112;-73
2022/03/12 05:02:32;;;;;;;;;;;9.70;85.10;;;;;;5007718;28;25063;-71
2022/03/12 05:04:58;;;;;;;6.95;4.75;;;9.70;85.20;;;;;;5008533;28;24110;-72
2022/03/12 05:07:26;;;;;;;5.15;4.45;;;9.70;85.20;;;;;;5008212;28;25096;-71
2022/03/12 05:09:52;;;;;;;8.93;4.70;;;9.80;85.80;;;;;;5008091;28;25106;-72
2022/03/12 05:12:18;;;;;;;6.57;4.53;;;9.70;85.80;;;;;;5008052;28;25115;-72
2022/03/12 05:14:46;;;;;;;5.68;4.63;;;9.70;86.10;;;;;;5007723;28;25105;-73
2022/03/12 05:17:14;;;;;;;6.88;4.57;;;9.70;86.40;;;;;;5008009;28;25094;-70
2022/03/12 05:19:39;;;;;;;8.60;5.47;;;9.80;86.80;;;;;;5010822;28;25124;-70
2022/03/12 05:22:07;;;;;;;6.40;4.82;;;9.80;86.40;;;;;;5010013;28;25155;-71
2022/03/12 05:24:33;;;;;;;7.78;5.43;;;9.80;86.20;;;;;;4990047;28;25092;-70
2022/03/12 05:26:59;;;;;;;7.30;5.25;;;9.70;86.00;;;;;;5007902;28;25095;-70
2022/03/12 05:29:25;;;;;;;7.97;4.78;;;9.70;87.10;;;;;;4995218;28;25054;-71
2022/03/12 05:31:54;;;;;;;7.28;4.72;;;9.70;86.20;;;;;;4998736;28;25064;-71
2022/03/12 05:34:22;;;;;;;6.15;4.50;;;9.70;86.40;;;;;;4994055;28;25071;-71
2022/03/12 05:36:49;;;;;;;7.18;4.90;;;9.80;86.10;;;;;;4996724;28;25073;-72
2022/03/12 05:39:15;;;;;;;7.85;4.30;;;9.80;85.60;;;;;;4996244;28;25054;-71
2022/03/12 05:41:44;;;;;;;6.57;4.15;;;9.90;85.30;;;;;;4986569;28;25065;-71
2022/03/12 05:44:13;;;;;;;6.57;4.45;;;9.90;84.10;;;;;;4984366;28;25149;-70
2022/03/12 05:46:38;;;;;;;6.93;4.40;;;9.90;83.70;;;;;;4999196;28;25088;-71
2022/03/12 05:49:04;;;;;;;8.27;4.50;;;10.00;83.70;;;;;;4993554;28;25052;-76
2022/03/12 05:51:30;;;;;;;6.13;4.25;;;9.90;83.40;;;;;;4993477;28;25081;-69
2022/03/12 05:53:55;;;;;;;6.45;4.75;;;10.00;83.30;;;;;;4998334;28;25117;-71
2022/03/12 05:56:21;;;;;;;7.47;4.57;;;9.90;83.20;;;;;;5001413;28;25064;-72
2022/03/12 05:58:46;;;;;;;10.88;4.95;;;9.80;83.80;;;;;;4996395;28;25126;-72
2022/03/12 06:01:12;;;;;;;7.00;4.75;;;9.80;84.00;;;;;;5006270;28;25072;-71
2022/03/12 06:03:38;;;;;;;9.73;5.35;;;9.80;84.70;;;;;;5002153;28;25076;-72
2022/03/12 06:06:04;;;;;;;7.47;5.50;;;9.80;85.00;;;;;;5004169;28;25106;-72
2022/03/12 06:08:29;;;;;;;10.35;5.07;;;9.80;85.20;;;;;;5009546;28;25159;-72
2022/03/12 06:10:57;;;;;;;8.70;4.85;;;9.80;84.90;;;;;;4999374;28;25148;-73
2022/03/12 06:13:25;;;;;;;7.97;5.15;;;9.90;85.30;;;;;;4998297;28;25089;-71
2022/03/12 06:15:58;;;;;;;10.50;5.43;;;9.90;85.30;;;;;;4981380;28;25108;-73
2022/03/12 06:18:42;;;;;;;6.68;5.53;;;9.90;84.80;;;;;;4998116;28;25051;-72
2022/03/12 06:21:08;;;;;;;8.30;5.00;;;9.80;85.20;;;;;;5002035;28;25105;-74
2022/03/12 06:23:34;;;;;;;9.20;5.70;;;9.80;85.70;;;;;;5002634;28;25083;-72
2022/03/12 06:26:02;;;;;;;8.05;5.85;;;9.80;85.50;;;;;;5010660;28;25111;-72
2022/03/12 06:28:27;;;;;;;8.98;5.22;;;9.90;85.60;;;;;;5010533;28;25136;-71
2022/03/12 06:30:53;;;;;;;8.48;4.93;;;9.90;85.20;;;;;;5010378;28;25465;-72
2022/03/12 06:33:19;;;;;;;7.53;5.07;;;9.90;85.40;;;;;;5004254;28;25073;-74
2022/03/12 06:35:46;;;;;;;9.60;5.35;;;9.90;85.10;;;;;;4981453;28;25096;-72
2022/03/12 06:38:14;;;;;;;9.55;5.65;;;9.90;85.20;;;;;;5002433;28;25129;-72
2022/03/12 06:40:40;;;;;;;11.55;4.60;;;9.90;85.20;;;;;;5001648;28;25074;-70
2022/03/12 06:43:08;;;;;;;8.90;4.93;;;9.90;85.50;;;;;;5006098;28;25081;-72
2022/03/12 06:45:34;;;;;;;5.78;4.65;;;9.80;85.00;;;;;;4993648;28;25114;-73
2022/03/12 06:48:00;;;;;;;7.53;5.38;;;9.80;85.50;;;;;;5009191;28;25112;-72
2022/03/12 06:50:26;;;;;;;9.10;5.35;;;9.80;85.90;;;;;;5009910;28;25162;-73
2022/03/12 06:52:53;;;;;;;9.60;5.50;;;9.80;85.80;;;;;;5010283;28;25087;-72
2022/03/12 06:55:22;;;;;;;8.57;5.50;;;9.80;85.80;;;;;;5012291;28;25091;-72
2022/03/12 06:57:49;;;;;;;9.40;5.10;;;9.70;86.20;;;;;;5012597;28;25063;-71
2022/03/12 07:00:20;;;;;;;9.25;5.57;;;9.80;86.90;;;;;;5010092;28;25054;-71
2022/03/12 07:02:45;;;;;;;5.55;4.80;;;9.90;86.30;;;;;;4991967;28;25073;-74
2022/03/12 07:05:13;;;;;;;13.48;6.10;;;9.80;85.90;;;;;;5010747;28;25067;-73
2022/03/12 07:07:39;;;;;;;8.75;5.30;;;9.80;86.00;;;;;;5015062;28;25059;-75
2022/03/12 07:10:08;;;;;;;10.10;6.03;;;9.80;86.60;;;;;;4994587;28;25102;-75
2022/03/12 07:12:35;;;;;;;7.72;5.88;;;9.80;86.40;;;;;;5011196;28;25068;-74
2022/03/12 07:15:00;;;;;;;7.82;5.70;;;9.90;86.60;;;;;;5008906;28;25077;-73
2022/03/12 07:17:26;;;;;;;8.73;6.55;;;9.90;86.70;;;;;;4984320;28;25076;-72
2022/03/12 07:19:51;;;;;;;8.18;5.43;;;9.90;86.50;;;;;;5009617;28;25072;-72
2022/03/12 07:22:17;;;;;;;11.20;6.05;;;9.90;87.20;;;;;;5002062;28;25074;-73
2022/03/12 07:24:43;;;;;;;10.98;5.70;;;10.00;86.60;;;;;;4991619;28;25072;-74
2022/03/12 07:27:08;;;;;;;8.90;5.53;;;10.00;86.60;;;;;;5004082;28;25083;-73
2022/03/12 07:29:34;;;;;;;8.70;6.28;;;10.00;86.70;;;;;;5010507;28;25114;-73
2022/03/12 07:32:00;;;;;;;9.18;6.28;;;10.10;85.90;;;;;;5007572;28;25090;-71
2022/03/12 07:34:27;;;;;;;12.68;6.50;;;10.10;85.40;;;;;;5002659;28;25093;-72
2022/03/12 07:36:52;;;;;;;10.95;6.05;;;10.10;86.20;;;;;;5001387;28;25088;-74
2022/03/12 07:39:20;;;;;;;9.13;5.57;;;10.10;85.70;;;;;;5001094;28;25118;-73
2022/03/12 07:41:46;;;;;;;11.02;6.53;;;10.20;86.30;;;;;;4985188;28;25071;-74
2022/03/12 07:44:11;;;;;;;10.68;5.65;;;10.10;85.20;;;;;;4977285;28;25056;-73
2022/03/12 07:46:37;;;;;;;11.70;5.95;;;10.20;85.20;;;;;;5005089;28;25062;-73
2022/03/12 07:49:03;;;;;;;8.55;5.78;;;10.20;85.70;;;;;;5007446;28;25144;-74
2022/03/12 07:51:29;;;;;;;11.45;6.05;;;10.30;84.50;;;;;;5001593;28;25151;-72
2022/03/12 07:53:56;;;;;;;8.82;5.95;;;10.30;84.00;;;;;;4984948;28;25074;-72
2022/03/12 07:56:22;;;;;;;7.97;6.07;;;10.30;83.80;;;;;;5008191;28;25089;-74
2022/03/12 07:58:48;;;;;;;12.57;6.28;;;10.30;83.80;;;;;;5011073;28;24910;-72
2022/03/12 08:01:13;;;;;;;10.60;6.40;;;10.30;83.90;;;;;;5008922;28;25077;-73
2022/03/12 08:03:39;;;;;;;8.27;5.32;;;10.30;83.70;;;;;;5013283;28;25072;-75
2022/03/12 08:06:06;;;;;;;9.73;6.18;;;10.40;83.10;;;;;;5011969;28;25124;-71
2022/03/12 08:08:32;;;;;;;8.30;5.90;;;10.40;82.50;;;;;;5010080;28;25089;-73
2022/03/12 08:13:43;;;;;;;11.65;6.50;;;10.50;81.30;;;;;;5011249;28;25119;-73
2022/03/12 08:16:09;;;;;;;9.00;6.22;;;10.50;81.50;;;;;;5005521;28;25068;-73
2022/03/12 08:18:35;;;;;;;10.65;6.00;;;10.50;81.40;;;;;;4995561;28;25070;-73
2022/03/12 08:21:00;;;;;;;8.77;5.72;;;10.50;81.30;;;;;;5000386;28;25149;-72
2022/03/12 08:23:26;;;;;;;10.15;5.65;;;10.60;81.10;;;;;;4995248;28;25073;-75
2022/03/12 08:25:52;;;;;;;13.70;6.22;;;10.80;80.40;;;;;;4995922;28;25077;-75
2022/03/12 08:28:18;;;;;;;7.22;5.32;;;10.80;79.20;;;;;;5003502;28;25071;-73
2022/03/12 08:30:46;;;;;;;7.53;5.25;;;10.90;78.60;;;;;;5002062;28;25079;-73
2022/03/12 08:33:12;;;;;;;10.20;5.70;;;11.00;78.40;;;;;;5008162;28;25058;-76
2022/03/12 08:35:38;;;;;;;9.77;5.13;;;11.00;75.90;;;;;;5011158;28;25063;-71
2022/03/12 08:38:04;;;;;;;9.55;4.55;;;11.00;75.70;;;;;;5010761;28;25082;-73
2022/03/12 08:40:30;;;;;;;10.38;5.72;;;11.20;75.40;;;;;;5010657;28;25071;-73
2022/03/12 08:42:56;;;;;;;8.48;4.95;;;11.30;74.20;;;;;;5010382;28;25062;-72
2022/03/12 08:45:23;;;;;;;12.77;5.30;;;11.30;73.60;;;;;;5009574;28;25119;-74
2022/03/12 08:47:49;;;;;;;8.52;5.07;;;11.60;73.00;;;;;;5009410;28;25083;-71
2022/03/12 08:50:15;;;;;;;10.52;5.18;;;11.70;71.00;;;;;;5006892;28;25077;-72
2022/03/12 08:52:42;;;;;;;6.93;4.30;;;11.80;70.60;;;;;;5009821;28;25077;-74
2022/03/12 08:55:09;;;;;;;8.55;4.60;;;11.80;70.00;;;;;;5008729;28;25082;-75
2022/03/12 08:57:35;;;;;;;8.25;4.20;;;11.90;69.00;;;;;;5008022;28;25134;-72
2022/03/12 09:00:05;;;;;;;10.57;4.20;;;12.10;68.50;;;;;;5010014;28;25084;-73
2022/03/12 09:02:35;;;;;;;7.57;4.65;;;12.20;66.60;;;;;;5009263;28;25068;-72
2022/03/12 09:05:05;;;;;;;9.00;4.93;;;12.30;67.40;;;;;;5010876;28;25135;-73
2022/03/12 09:07:32;;;;;;;15.02;5.72;;;12.40;65.60;;;;;;4993360;28;25099;-73
2022/03/12 09:09:57;;;;;;;11.90;4.72;;;12.20;64.60;;;;;;5003276;28;25073;-71
2022/03/12 09:12:23;;;;;;;12.32;5.10;;;12.40;65.80;;;;;;5011252;28;25072;-74
2022/03/12 09:14:50;;;;;;;16.92;5.15;;;12.60;65.30;;;;;;5020796;28;25085;-75
2022/03/12 09:17:15;;;;;;;8.18;5.43;;;12.60;63.00;;;;;;4989061;28;25105;-75
2022/03/12 09:19:41;;;;;;;10.45;4.53;;;12.60;63.40;;;;;;5011319;28;25089;-72
2022/03/12 09:22:06;;;;;;;10.95;4.95;;;12.80;62.20;;;;;;5010498;28;25104;-74
2022/03/12 09:24:32;;;;;;;10.98;5.10;;;13.10;62.50;;;;;;5009934;28;25102;-71
2022/03/12 09:26:59;;;;;;;8.10;4.82;;;13.30;60.30;;;;;;5009239;28;25066;-71
2022/03/12 09:29:26;;;;;;;10.23;5.72;;;13.30;56.30;;;;;;5010878;28;25123;-74
2022/03/12 09:31:52;;;;;;;11.02;5.15;;;12.90;57.80;;;;;;5012334;28;25107;-71
2022/03/12 09:34:17;;;;;;;10.63;4.80;;;12.60;58.50;;;;;;5012665;28;25158;-75
2022/03/12 09:36:43;;;;;;;10.63;5.13;;;12.60;59.60;;;;;;5015949;28;25061;-71
2022/03/12 09:39:09;;;;;;;6.72;4.47;;;12.60;60.00;;;;;;5011711;28;25094;-72
2022/03/12 09:41:38;;;;;;;8.48;4.55;;;12.70;59.70;;;;;;5012321;28;25074;-69
2022/03/12 09:44:05;;;;;;;8.13;4.68;;;12.90;59.30;;;;;;5012824;28;25120;-73
2022/03/12 09:46:30;;;;;;;12.35;4.88;;;12.60;59.00;;;;;;5013216;28;25055;-71
2022/03/12 09:48:56;;;;;;;7.78;4.30;;;12.50;60.00;;;;;;5013208;28;25105;-73
2022/03/12 09:51:23;;;;;;;10.63;4.00;;;12.70;59.70;;;;;;5012976;28;25073;-70
2022/03/12 09:53:48;;;;;;;6.95;3.85;;;12.70;59.50;;;;;;5014355;28;25135;-70
2022/03/12 09:56:14;;;;;;;6.47;3.97;;;12.80;59.20;;;;;;5028320;28;25089;-69
2022/03/12 09:58:41;;;;;;;8.98;4.30;;;12.70;58.10;;;;;;5006045;28;25061;-72
2022/03/12 10:01:07;;;;;;;9.20;4.28;;;12.70;57.90;;;;;;5015862;28;25047;-69
2022/03/12 10:03:32;;;;;;;8.98;4.40;;;12.50;58.40;;;;;;5013107;28;25062;-70
2022/03/12 10:05:58;;;;;;;6.57;3.92;;;12.90;59.00;;;;;;5012773;28;25075;-71
2022/03/12 10:08:23;;;;;;;10.80;4.25;;;13.10;55.50;;;;;;5013075;28;25083;-70
2022/03/12 10:10:49;;;;;;;9.25;5.47;;;13.10;55.50;;;;;;5013749;28;25057;-74
2022/03/12 10:13:15;;;;;;;14.40;5.43;;;13.20;54.10;;;;;;5014220;28;25065;-73
2022/03/12 10:15:40;;;;;;;10.25;4.10;;;13.20;53.20;;;;;;5013756;28;25062;-70
2022/03/12 10:18:07;;;;;;;7.93;4.35;;;13.10;53.00;;;;;;5013749;28;25131;-71
2022/03/12 10:20:33;;;;;;;5.25;3.95;;;13.10;52.40;;;;;;5015119;28;25088;-71
2022/03/12 10:22:59;;;;;;;11.23;3.83;;;13.10;53.40;;;;;;5026095;28;25046;-71
2022/03/12 10:25:25;;;;;;;10.20;5.07;;;13.00;52.70;;;;;;5033478;28;25110;-71
2022/03/12 10:27:51;;;;;;;8.00;4.18;;;13.10;51.00;;;;;;5033681;28;25073;-71
2022/03/12 10:30:16;;;;;;;10.52;4.80;;;13.00;52.00;;;;;;5033048;28;25055;-71
2022/03/12 10:32:47;;;;;;;9.27;4.97;;;13.10;52.00;;;;;;5022666;28;25076;-71
2022/03/12 10:35:19;;;;;;;6.47;4.32;;;13.30;51.60;;;;;;5015935;28;25172;-71
2022/03/12 10:37:46;;;;;;;11.95;4.72;;;13.40;51.00;;;;;;5013421;28;25082;-71
2022/03/12 10:40:16;;;;;;;8.27;4.88;;;13.50;50.20;;;;;;5013576;28;25092;-70
2022/03/12 10:42:53;;;;;;;8.90;4.00;;;13.70;48.60;;;;;;5013788;28;25104;-71
2022/03/12 10:45:25;;;;;;;10.18;4.20;;;13.80;48.70;;;;;;4995769;28;25074;-69
2022/03/12 10:47:56;;;;;;;12.68;4.10;;;14.00;49.30;;;;;;5013556;28;25066;-73
2022/03/12 10:50:26;;;;;;;7.53;4.30;;;13.70;47.80;;;;;;5012463;28;25050;-71
2022/03/12 10:52:54;;;;;;;9.23;3.97;;;13.70;49.80;;;;;;5012089;28;25080;-71
2022/03/12 10:55:26;;;;;;;8.80;3.40;;;13.90;48.10;;;;;;5012944;28;25076;-69
2022/03/12 10:57:57;;;;;;;8.57;3.50;;;13.80;47.10;;;;;;4997250;28;25130;-70
2022/03/12 11:00:28;;;;;;;6.25;3.65;;;14.00;48.10;;;;;;5015030;28;25085;-70
2022/03/12 11:02:59;;;;;;;4.97;3.35;;;14.10;45.80;;;;;;5001493;28;25099;-71
2022/03/12 11:05:33;;;;;;;7.13;3.25;;;14.30;44.30;;;;;;5015570;28;25053;-70
2022/03/12 11:08:18;;;;;;;6.82;3.15;;;14.40;44.30;;;;;;5017027;28;25074;-70
2022/03/12 11:10:51;;;;;;;8.77;3.63;;;14.10;44.10;;;;;;5016638;28;25052;-73
2022/03/12 11:13:40;;;;;;;7.70;3.33;;;14.10;43.40;;;;;;5018904;28;25048;-71
2022/03/12 11:16:32;;;;;;;5.28;2.97;;;14.60;44.30;;;;;;5023339;28;25085;-71
2022/03/12 11:19:10;;;;;;;6.32;2.83;;;14.80;42.90;;;;;;5023283;28;25050;-72
2022/03/12 11:21:40;;;;;;;4.45;2.55;;;14.70;40.20;;;;;;5020961;28;25065;-70
2022/03/12 11:24:28;;;;;;;7.78;2.90;;;14.40;40.60;;;;;;5016140;28;25149;-72
2022/03/12 11:26:58;;;;;;;6.93;2.38;;;14.50;40.80;;;;;;5013370;28;25074;-72
2022/03/12 11:29:26;;;;;;;5.35;2.30;;;14.80;41.00;;;;;;5003888;28;25054;-71
2022/03/12 11:31:56;;;;;;;5.72;2.38;;;14.70;39.80;;;;;;5009202;28;25098;-71
2022/03/12 11:34:23;;;;;;;9.23;2.63;;;14.60;38.90;;;;;;5011909;28;25075;-71
2022/03/12 11:37:16;;;;;;;6.75;2.65;;;14.80;40.70;;;;;;5024592;28;25075;-70
2022/03/12 11:39:53;;;;;;;3.92;2.38;;;15.30;39.60;;;;;;5012365;28;25168;-69
2022/03/12 11:42:23;;;;;;;6.63;2.92;;;15.60;35.50;;;;;;5012145;28;25069;-72
2022/03/12 11:44:51;;;;;;;4.10;2.60;;;15.30;36.40;;;;;;5011535;28;25115;-71
2022/03/12 11:47:25;;;;;;;6.40;3.08;;;15.10;35.50;;;;;;5006891;28;25140;-70
2022/03/12 11:49:52;;;;;;;5.68;2.70;;;14.80;36.20;;;;;;5007795;28;25061;-70
2022/03/12 11:52:19;;;;;;;7.00;2.40;;;14.60;36.30;;;;;;4997564;28;25150;-71
2022/03/12 11:54:45;;;;;;;5.22;2.42;;;14.40;36.30;;;;;;5000567;28;25083;-70
2022/03/12 11:57:22;;;;;;;7.03;2.88;;;14.40;37.20;;;;;;5004108;28;25061;-71
2022/03/12 11:59:48;;;;;;;5.40;2.50;;;14.30;37.30;;;;;;5002768;28;25058;-70
2022/03/12 12:02:19;;;;;;;4.82;2.20;;;14.60;37.30;;;;;;5002100;28;25070;-70
2022/03/12 12:04:45;;;;;;;5.97;2.58;;;14.70;37.20;;;;;;4999205;28;25092;-70
2022/03/12 12:07:11;;;;;;;5.03;2.10;;;15.20;34.50;;;;;;5000638;28;25087;-70
2022/03/12 12:09:37;;;;;;;7.78;2.45;;;15.60;33.20;;;;;;5002072;28;25095;-72
2022/03/12 12:12:09;;;;;;;5.40;2.20;;;15.60;31.00;;;;;;4991656;28;25065;-72
2022/03/12 12:14:35;;;;;;;4.93;2.40;;;15.60;30.90;;;;;;5000230;28;25081;-70
2022/03/12 12:17:01;;;;;;;3.78;2.00;;;15.90;30.90;;;;;;4999129;28;25043;-71
2022/03/12 12:19:27;;;;;;;4.15;2.13;;;16.10;29.30;;;;;;5000412;28;25144;-70
2022/03/12 12:21:53;;;;;;;4.90;1.92;;;16.20;29.10;;;;;;4996448;28;25061;-72
2022/03/12 12:24:31;;;;;;;6.55;2.40;;;15.80;28.40;;;;;;5001146;28;25069;-70
2022/03/12 12:27:08;;;;;;;7.28;2.25;;;15.90;29.20;;;;;;4981708;28;25118;-70
2022/03/12 12:29:40;;;;;;;8.75;2.60;;;16.20;27.70;;;;;;5001031;28;25065;-71
2022/03/12 12:32:07;;;;;;;8.40;4.03;;;16.20;27.70;;;;;;5009353;28;25156;-71
2022/03/12 12:34:34;;;;;;;5.68;1.80;;;16.40;26.30;;;;;;4997011;28;25106;-72
2022/03/12 12:37:02;;;;;;;7.30;1.73;;;16.10;24.60;;;;;;5001134;28;25092;-70
2022/03/12 12:39:28;;;;;;;5.03;1.80;;;16.40;23.90;;;;;;5008178;28;25126;-70
2022/03/12 12:42:02;;;;;;;5.32;1.80;;;16.50;23.80;;;;;;5009874;28;25109;-73
2022/03/12 12:44:43;;;;;;;4.22;2.25;;;17.00;22.60;;;;;;5012190;28;25058;-72
2022/03/12 12:47:17;;;;;;;4.40;1.40;;;17.10;22.30;;;;;;5006589;28;25075;-72